sensor_id;sensor_type;location;lat;lon;timestamp;P1;durP1;ratioP1;P2;durP2;ratioP2
68216;SDS011;55037;52.354;4.992;2023-02-22T00:01:33;72.40;;;24.83;;
68216;SDS011;55037;52.354;4.992;2023-02-22T00:04:13;68.38;;;23.75;;
68216;SDS011;55037;52.354;4.992;2023-02-22T00:06:41;70.18;;;23.70;;
68216;SDS011;55037;52.354;4.992;2023-02-22T00:09:08;75.20;;;25.55;;
68216;SDS011;55037;52.354;4.992;2023-02-22T00:11:36;81.75;;;26.92;;
68216;SDS011;55037;52.354;4.992;2023-02-22T00:14:04;72.50;;;24.60;;
68216;SDS011;55037;52.354;4.992;2023-02-22T00:16:31;75.70;;;23.73;;
68216;SDS011;55037;52.354;4.992;2023-02-22T00:18:58;75.18;;;24.52;;
68216;SDS011;55037;52.354;4.992;2023-02-22T00:21:26;78.03;;;26.03;;
68216;SDS011;55037;52.354;4.992;2023-02-22T00:23:53;87.40;;;27.37;;
68216;SDS011;55037;52.354;4.992;2023-02-22T00:26:20;84.03;;;26.40;;
68216;SDS011;55037;52.354;4.992;2023-02-22T00:28:52;77.20;;;24.73;;
68216;SDS011;55037;52.354;4.992;2023-02-22T00:31:20;81.85;;;25.95;;
68216;SDS011;55037;52.354;4.992;2023-02-22T00:33:48;85.35;;;26.38;;
68216;SDS011;55037;52.354;4.992;2023-02-22T00:36:16;77.15;;;23.45;;
68216;SDS011;55037;52.354;4.992;2023-02-22T00:38:43;81.23;;;24.67;;
68216;SDS011;55037;52.354;4.992;2023-02-22T00:41:10;77.38;;;23.40;;
68216;SDS011;55037;52.354;4.992;2023-02-22T00:43:38;78.23;;;23.90;;
68216;SDS011;55037;52.354;4.992;2023-02-22T00:46:05;81.43;;;24.75;;
68216;SDS011;55037;52.354;4.992;2023-02-22T00:48:32;70.65;;;20.98;;
68216;SDS011;55037;52.354;4.992;2023-02-22T00:50:59;76.38;;;24.23;;
68216;SDS011;55037;52.354;4.992;2023-02-22T00:53:28;82.53;;;25.55;;
68216;SDS011;55037;52.354;4.992;2023-02-22T00:55:55;68.03;;;21.47;;
68216;SDS011;55037;52.354;4.992;2023-02-22T00:58:23;79.50;;;25.17;;
68216;SDS011;55037;52.354;4.992;2023-02-22T01:00:50;77.50;;;24.08;;
68216;SDS011;55037;52.354;4.992;2023-02-22T01:03:18;81.72;;;24.98;;
68216;SDS011;55037;52.354;4.992;2023-02-22T01:05:46;66.97;;;21.70;;
68216;SDS011;55037;52.354;4.992;2023-02-22T01:08:14;69.03;;;21.60;;
68216;SDS011;55037;52.354;4.992;2023-02-22T01:10:43;69.50;;;21.05;;
68216;SDS011;55037;52.354;4.992;2023-02-22T01:13:11;69.85;;;22.58;;
68216;SDS011;55037;52.354;4.992;2023-02-22T01:15:40;66.75;;;22.55;;
68216;SDS011;55037;52.354;4.992;2023-02-22T01:18:08;71.03;;;23.02;;
68216;SDS011;55037;52.354;4.992;2023-02-22T01:20:36;48.63;;;17.17;;
68216;SDS011;55037;52.354;4.992;2023-02-22T01:23:04;63.47;;;20.65;;
68216;SDS011;55037;52.354;4.992;2023-02-22T01:25:33;54.50;;;18.77;;
68216;SDS011;55037;52.354;4.992;2023-02-22T01:28:02;68.00;;;22.27;;
68216;SDS011;55037;52.354;4.992;2023-02-22T01:30:31;67.75;;;22.30;;
68216;SDS011;55037;52.354;4.992;2023-02-22T01:33:00;68.25;;;22.00;;
68216;SDS011;55037;52.354;4.992;2023-02-22T01:35:30;72.88;;;22.55;;
68216;SDS011;55037;52.354;4.992;2023-02-22T01:37:59;67.70;;;23.15;;
68216;SDS011;55037;52.354;4.992;2023-02-22T01:40:31;68.68;;;22.42;;
68216;SDS011;55037;52.354;4.992;2023-02-22T01:43:13;70.37;;;24.70;;
68216;SDS011;55037;52.354;4.992;2023-02-22T01:51:31;67.63;;;25.67;;
68216;SDS011;55037;52.354;4.992;2023-02-22T01:54:05;66.93;;;23.92;;
68216;SDS011;55037;52.354;4.992;2023-02-22T01:56:44;55.70;;;22.17;;
68216;SDS011;55037;52.354;4.992;2023-02-22T01:59:19;63.15;;;24.60;;
68216;SDS011;55037;52.354;4.992;2023-02-22T02:01:48;67.57;;;26.27;;
68216;SDS011;55037;52.354;4.992;2023-02-22T02:04:19;70.57;;;27.20;;
68216;SDS011;55037;52.354;4.992;2023-02-22T02:06:54;63.22;;;24.63;;
68216;SDS011;55037;52.354;4.992;2023-02-22T02:12:02;66.93;;;27.00;;
68216;SDS011;55037;52.354;4.992;2023-02-22T02:14:32;71.85;;;28.73;;
68216;SDS011;55037;52.354;4.992;2023-02-22T02:16:59;64.20;;;25.92;;
68216;SDS011;55037;52.354;4.992;2023-02-22T02:19:46;63.85;;;27.70;;
68216;SDS011;55037;52.354;4.992;2023-02-22T02:25:43;58.08;;;26.20;;
68216;SDS011;55037;52.354;4.992;2023-02-22T02:31:20;59.63;;;26.30;;
68216;SDS011;55037;52.354;4.992;2023-02-22T02:34:31;60.42;;;27.40;;
68216;SDS011;55037;52.354;4.992;2023-02-22T02:37:26;62.78;;;28.58;;
68216;SDS011;55037;52.354;4.992;2023-02-22T02:40:23;62.13;;;28.50;;
68216;SDS011;55037;52.354;4.992;2023-02-22T02:46:18;56.88;;;27.45;;
68216;SDS011;55037;52.354;4.992;2023-02-22T02:48:34;57.30;;;27.50;;
68216;SDS011;55037;52.354;4.992;2023-02-22T02:51:04;58.15;;;29.33;;
68216;SDS011;55037;52.354;4.992;2023-02-22T02:53:38;63.92;;;32.05;;
68216;SDS011;55037;52.354;4.992;2023-02-22T02:56:09;59.05;;;28.67;;
68216;SDS011;55037;52.354;4.992;2023-02-22T02:58:49;55.22;;;29.02;;
68216;SDS011;55037;52.354;4.992;2023-02-22T03:01:32;56.30;;;29.60;;
68216;SDS011;55037;52.354;4.992;2023-02-22T03:04:36;59.38;;;32.95;;
68216;SDS011;55037;52.354;4.992;2023-02-22T03:07:41;60.30;;;33.90;;
68216;SDS011;55037;52.354;4.992;2023-02-22T03:12:59;61.13;;;36.37;;
68216;SDS011;55037;52.354;4.992;2023-02-22T03:18:13;57.78;;;36.35;;
68216;SDS011;55037;52.354;4.992;2023-02-22T03:20:48;64.57;;;40.75;;
68216;SDS011;55037;52.354;4.992;2023-02-22T03:26:07;73.82;;;46.80;;
68216;SDS011;55037;52.354;4.992;2023-02-22T03:28:40;64.13;;;39.13;;
68216;SDS011;55037;52.354;4.992;2023-02-22T03:31:18;66.30;;;40.05;;
68216;SDS011;55037;52.354;4.992;2023-02-22T03:33:59;60.15;;;37.45;;
68216;SDS011;55037;52.354;4.992;2023-02-22T03:36:33;70.00;;;42.58;;
68216;SDS011;55037;52.354;4.992;2023-02-22T03:39:06;69.95;;;41.38;;
68216;SDS011;55037;52.354;4.992;2023-02-22T03:41:46;66.43;;;41.22;;
68216;SDS011;55037;52.354;4.992;2023-02-22T03:44:20;68.03;;;41.50;;
68216;SDS011;55037;52.354;4.992;2023-02-22T03:46:52;65.60;;;39.63;;
68216;SDS011;55037;52.354;4.992;2023-02-22T03:49:25;70.72;;;43.70;;
68216;SDS011;55037;52.354;4.992;2023-02-22T03:52:03;64.18;;;39.97;;
68216;SDS011;55037;52.354;4.992;2023-02-22T03:54:32;71.88;;;43.53;;
68216;SDS011;55037;52.354;4.992;2023-02-22T03:57:09;73.13;;;43.55;;
68216;SDS011;55037;52.354;4.992;2023-02-22T03:59:59;76.70;;;46.78;;
68216;SDS011;55037;52.354;4.992;2023-02-22T04:02:27;77.43;;;44.80;;
68216;SDS011;55037;52.354;4.992;2023-02-22T04:04:54;78.80;;;46.53;;
68216;SDS011;55037;52.354;4.992;2023-02-22T04:07:22;79.43;;;47.17;;
68216;SDS011;55037;52.354;4.992;2023-02-22T04:09:49;76.18;;;43.55;;
68216;SDS011;55037;52.354;4.992;2023-02-22T04:12:17;78.80;;;46.70;;
68216;SDS011;55037;52.354;4.992;2023-02-22T04:14:58;82.07;;;48.05;;
68216;SDS011;55037;52.354;4.992;2023-02-22T04:17:25;79.68;;;46.40;;
68216;SDS011;55037;52.354;4.992;2023-02-22T04:19:52;73.72;;;42.65;;
68216;SDS011;55037;52.354;4.992;2023-02-22T04:22:22;74.27;;;44.57;;
68216;SDS011;55037;52.354;4.992;2023-02-22T04:24:51;79.35;;;46.65;;
68216;SDS011;55037;52.354;4.992;2023-02-22T04:27:19;74.38;;;44.30;;
68216;SDS011;55037;52.354;4.992;2023-02-22T04:29:47;79.28;;;46.53;;
68216;SDS011;55037;52.354;4.992;2023-02-22T04:32:15;77.63;;;42.63;;
68216;SDS011;55037;52.354;4.992;2023-02-22T04:34:42;77.77;;;44.90;;
68216;SDS011;55037;52.354;4.992;2023-02-22T04:37:09;80.00;;;47.03;;
68216;SDS011;55037;52.354;4.992;2023-02-22T04:39:36;77.03;;;42.58;;
68216;SDS011;55037;52.354;4.992;2023-02-22T04:42:04;75.32;;;42.55;;
68216;SDS011;55037;52.354;4.992;2023-02-22T04:44:32;68.38;;;39.90;;
68216;SDS011;55037;52.354;4.992;2023-02-22T04:46:59;72.28;;;41.10;;
68216;SDS011;55037;52.354;4.992;2023-02-22T04:49:26;71.30;;;40.22;;
68216;SDS011;55037;52.354;4.992;2023-02-22T04:51:55;70.05;;;39.38;;
68216;SDS011;55037;52.354;4.992;2023-02-22T04:54:29;72.90;;;41.55;;
68216;SDS011;55037;52.354;4.992;2023-02-22T04:56:57;80.25;;;45.97;;
68216;SDS011;55037;52.354;4.992;2023-02-22T04:59:24;86.32;;;49.80;;
68216;SDS011;55037;52.354;4.992;2023-02-22T05:01:55;73.63;;;43.53;;
68216;SDS011;55037;52.354;4.992;2023-02-22T05:04:22;82.03;;;45.67;;
68216;SDS011;55037;52.354;4.992;2023-02-22T05:06:49;82.90;;;47.78;;
68216;SDS011;55037;52.354;4.992;2023-02-22T05:09:20;78.05;;;43.67;;
68216;SDS011;55037;52.354;4.992;2023-02-22T05:11:47;80.68;;;43.85;;
68216;SDS011;55037;52.354;4.992;2023-02-22T05:14:15;80.82;;;42.88;;
68216;SDS011;55037;52.354;4.992;2023-02-22T05:16:42;81.25;;;43.03;;
68216;SDS011;55037;52.354;4.992;2023-02-22T05:19:10;74.47;;;41.07;;
68216;SDS011;55037;52.354;4.992;2023-02-22T05:21:37;89.93;;;48.50;;
68216;SDS011;55037;52.354;4.992;2023-02-22T05:24:05;73.53;;;39.37;;
68216;SDS011;55037;52.354;4.992;2023-02-22T05:26:33;86.10;;;46.67;;
68216;SDS011;55037;52.354;4.992;2023-02-22T05:29:00;77.53;;;41.23;;
68216;SDS011;55037;52.354;4.992;2023-02-22T05:31:27;86.50;;;42.78;;
68216;SDS011;55037;52.354;4.992;2023-02-22T05:33:54;84.75;;;44.17;;
68216;SDS011;55037;52.354;4.992;2023-02-22T05:36:22;83.57;;;43.20;;
68216;SDS011;55037;52.354;4.992;2023-02-22T05:38:49;71.30;;;41.38;;
68216;SDS011;55037;52.354;4.992;2023-02-22T05:41:16;80.07;;;41.03;;
68216;SDS011;55037;52.354;4.992;2023-02-22T05:43:44;87.00;;;43.92;;
68216;SDS011;55037;52.354;4.992;2023-02-22T05:46:11;84.70;;;43.17;;
68216;SDS011;55037;52.354;4.992;2023-02-22T05:48:42;83.93;;;42.40;;
68216;SDS011;55037;52.354;4.992;2023-02-22T05:51:09;84.60;;;42.97;;
68216;SDS011;55037;52.354;4.992;2023-02-22T05:53:37;81.28;;;41.65;;
68216;SDS011;55037;52.354;4.992;2023-02-22T05:56:04;78.37;;;40.80;;
68216;SDS011;55037;52.354;4.992;2023-02-22T05:58:32;84.40;;;42.97;;
68216;SDS011;55037;52.354;4.992;2023-02-22T06:00:59;78.38;;;41.03;;
68216;SDS011;55037;52.354;4.992;2023-02-22T06:03:29;81.25;;;41.90;;
68216;SDS011;55037;52.354;4.992;2023-02-22T06:05:56;81.43;;;42.65;;
68216;SDS011;55037;52.354;4.992;2023-02-22T06:08:23;72.32;;;39.30;;
68216;SDS011;55037;52.354;4.992;2023-02-22T06:10:50;86.18;;;42.90;;
68216;SDS011;55037;52.354;4.992;2023-02-22T06:13:18;89.50;;;43.70;;
68216;SDS011;55037;52.354;4.992;2023-02-22T06:15:45;87.68;;;44.67;;
68216;SDS011;55037;52.354;4.992;2023-02-22T06:18:12;84.63;;;41.92;;
68216;SDS011;55037;52.354;4.992;2023-02-22T06:20:39;84.03;;;43.15;;
68216;SDS011;55037;52.354;4.992;2023-02-22T06:23:07;90.22;;;42.50;;
68216;SDS011;55037;52.354;4.992;2023-02-22T06:25:34;88.32;;;43.20;;
68216;SDS011;55037;52.354;4.992;2023-02-22T06:28:02;75.95;;;39.25;;
68216;SDS011;55037;52.354;4.992;2023-02-22T06:30:29;88.53;;;43.83;;
68216;SDS011;55037;52.354;4.992;2023-02-22T06:32:57;88.15;;;42.72;;
68216;SDS011;55037;52.354;4.992;2023-02-22T06:35:24;93.72;;;43.08;;
68216;SDS011;55037;52.354;4.992;2023-02-22T06:37:52;90.32;;;42.88;;
68216;SDS011;55037;52.354;4.992;2023-02-22T06:40:19;98.65;;;43.55;;
68216;SDS011;55037;52.354;4.992;2023-02-22T06:42:47;101.35;;;45.22;;
68216;SDS011;55037;52.354;4.992;2023-02-22T06:45:15;102.20;;;43.63;;
68216;SDS011;55037;52.354;4.992;2023-02-22T06:47:43;109.80;;;46.20;;
68216;SDS011;55037;52.354;4.992;2023-02-22T06:50:18;106.95;;;46.00;;
68216;SDS011;55037;52.354;4.992;2023-02-22T06:52:51;110.70;;;47.58;;
68216;SDS011;55037;52.354;4.992;2023-02-22T06:55:20;114.82;;;48.03;;
68216;SDS011;55037;52.354;4.992;2023-02-22T06:57:49;116.50;;;46.15;;
68216;SDS011;55037;52.354;4.992;2023-02-22T07:00:17;113.22;;;45.17;;
68216;SDS011;55037;52.354;4.992;2023-02-22T07:02:47;115.20;;;45.80;;
68216;SDS011;55037;52.354;4.992;2023-02-22T07:05:15;118.90;;;46.73;;
68216;SDS011;55037;52.354;4.992;2023-02-22T07:07:45;124.28;;;44.53;;
68216;SDS011;55037;52.354;4.992;2023-02-22T07:10:20;125.40;;;46.87;;
68216;SDS011;55037;52.354;4.992;2023-02-22T07:12:50;142.45;;;47.40;;
68216;SDS011;55037;52.354;4.992;2023-02-22T07:15:19;144.20;;;46.63;;
68216;SDS011;55037;52.354;4.992;2023-02-22T07:17:48;147.45;;;49.53;;
68216;SDS011;55037;52.354;4.992;2023-02-22T07:20:16;143.55;;;46.17;;
68216;SDS011;55037;52.354;4.992;2023-02-22T07:22:46;165.68;;;46.92;;
68216;SDS011;55037;52.354;4.992;2023-02-22T07:25:15;141.30;;;45.77;;
68216;SDS011;55037;52.354;4.992;2023-02-22T07:27:42;133.73;;;43.37;;
68216;SDS011;55037;52.354;4.992;2023-02-22T07:32:51;130.48;;;46.90;;
68216;SDS011;55037;52.354;4.992;2023-02-22T07:35:22;130.82;;;47.50;;
68216;SDS011;55037;52.354;4.992;2023-02-22T07:37:51;132.52;;;47.55;;
68216;SDS011;55037;52.354;4.992;2023-02-22T07:40:22;139.80;;;47.22;;
68216;SDS011;55037;52.354;4.992;2023-02-22T07:42:51;116.90;;;43.85;;
68216;SDS011;55037;52.354;4.992;2023-02-22T07:45:20;134.40;;;46.58;;
68216;SDS011;55037;52.354;4.992;2023-02-22T07:47:48;118.95;;;44.05;;
68216;SDS011;55037;52.354;4.992;2023-02-22T07:50:16;119.20;;;46.58;;
68216;SDS011;55037;52.354;4.992;2023-02-22T07:52:45;119.90;;;45.23;;
68216;SDS011;55037;52.354;4.992;2023-02-22T07:55:17;134.43;;;48.35;;
68216;SDS011;55037;52.354;4.992;2023-02-22T07:57:50;132.70;;;46.95;;
68216;SDS011;55037;52.354;4.992;2023-02-22T08:00:23;118.07;;;41.83;;
68216;SDS011;55037;52.354;4.992;2023-02-22T08:02:51;125.82;;;44.33;;
68216;SDS011;55037;52.354;4.992;2023-02-22T08:05:18;121.60;;;46.30;;
68216;SDS011;55037;52.354;4.992;2023-02-22T08:07:47;121.78;;;45.00;;
68216;SDS011;55037;52.354;4.992;2023-02-22T08:10:16;123.05;;;45.80;;
68216;SDS011;55037;52.354;4.992;2023-02-22T08:12:44;95.95;;;40.60;;
68216;SDS011;55037;52.354;4.992;2023-02-22T08:15:16;118.07;;;42.40;;
68216;SDS011;55037;52.354;4.992;2023-02-22T08:17:46;89.32;;;38.33;;
68216;SDS011;55037;52.354;4.992;2023-02-22T08:20:13;95.07;;;39.03;;
68216;SDS011;55037;52.354;4.992;2023-02-22T08:22:42;113.93;;;45.38;;
68216;SDS011;55037;52.354;4.992;2023-02-22T08:25:09;93.60;;;39.17;;
68216;SDS011;55037;52.354;4.992;2023-02-22T08:27:37;79.33;;;36.03;;
68216;SDS011;55037;52.354;4.992;2023-02-22T08:30:05;93.95;;;38.35;;
68216;SDS011;55037;52.354;4.992;2023-02-22T08:32:33;81.23;;;37.33;;
68216;SDS011;55037;52.354;4.992;2023-02-22T08:35:04;100.85;;;42.15;;
68216;SDS011;55037;52.354;4.992;2023-02-22T08:37:31;95.13;;;39.90;;
68216;SDS011;55037;52.354;4.992;2023-02-22T08:39:59;103.15;;;42.05;;
68216;SDS011;55037;52.354;4.992;2023-02-22T08:42:26;105.25;;;41.47;;
68216;SDS011;55037;52.354;4.992;2023-02-22T08:44:53;109.65;;;42.47;;
68216;SDS011;55037;52.354;4.992;2023-02-22T08:47:20;106.60;;;41.60;;
68216;SDS011;55037;52.354;4.992;2023-02-22T08:49:47;98.17;;;40.63;;
68216;SDS011;55037;52.354;4.992;2023-02-22T08:52:15;92.28;;;38.75;;
68216;SDS011;55037;52.354;4.992;2023-02-22T08:54:43;102.53;;;42.13;;
68216;SDS011;55037;52.354;4.992;2023-02-22T08:57:11;99.22;;;38.90;;
68216;SDS011;55037;52.354;4.992;2023-02-22T08:59:39;67.70;;;29.42;;
68216;SDS011;55037;52.354;4.992;2023-02-22T09:02:13;75.57;;;29.93;;
68216;SDS011;55037;52.354;4.992;2023-02-22T09:04:44;94.25;;;35.45;;
68216;SDS011;55037;52.354;4.992;2023-02-22T09:07:12;77.55;;;33.10;;
68216;SDS011;55037;52.354;4.992;2023-02-22T09:09:43;83.97;;;36.53;;
68216;SDS011;55037;52.354;4.992;2023-02-22T09:12:11;79.47;;;35.03;;
68216;SDS011;55037;52.354;4.992;2023-02-22T09:14:38;79.90;;;34.45;;
68216;SDS011;55037;52.354;4.992;2023-02-22T09:17:05;70.45;;;29.63;;
68216;SDS011;55037;52.354;4.992;2023-02-22T09:19:32;71.57;;;31.42;;
68216;SDS011;55037;52.354;4.992;2023-02-22T09:22:00;69.15;;;28.35;;
68216;SDS011;55037;52.354;4.992;2023-02-22T09:24:27;69.10;;;26.65;;
68216;SDS011;55037;52.354;4.992;2023-02-22T09:26:54;70.72;;;27.90;;
68216;SDS011;55037;52.354;4.992;2023-02-22T09:29:23;61.92;;;22.02;;
68216;SDS011;55037;52.354;4.992;2023-02-22T09:31:52;46.67;;;17.95;;
68216;SDS011;55037;52.354;4.992;2023-02-22T09:34:22;56.15;;;22.30;;
68216;SDS011;55037;52.354;4.992;2023-02-22T09:36:55;55.03;;;22.45;;
68216;SDS011;55037;52.354;4.992;2023-02-22T09:39:23;51.25;;;21.65;;
68216;SDS011;55037;52.354;4.992;2023-02-22T09:44:46;55.50;;;23.73;;
68216;SDS011;55037;52.354;4.992;2023-02-22T09:47:46;48.55;;;22.45;;
68216;SDS011;55037;52.354;4.992;2023-02-22T09:50:24;56.47;;;24.75;;
68216;SDS011;55037;52.354;4.992;2023-02-22T09:52:57;53.13;;;24.17;;
68216;SDS011;55037;52.354;4.992;2023-02-22T09:58:23;50.72;;;23.35;;
68216;SDS011;55037;52.354;4.992;2023-02-22T10:00:56;46.17;;;21.43;;
68216;SDS011;55037;52.354;4.992;2023-02-22T10:06:34;47.17;;;22.10;;
68216;SDS011;55037;52.354;4.992;2023-02-22T10:09:04;48.77;;;23.43;;
68216;SDS011;55037;52.354;4.992;2023-02-22T10:11:42;43.72;;;21.60;;
68216;SDS011;55037;52.354;4.992;2023-02-22T10:17:12;44.13;;;21.73;;
68216;SDS011;55037;52.354;4.992;2023-02-22T10:25:04;46.53;;;21.98;;
68216;SDS011;55037;52.354;4.992;2023-02-22T10:27:56;43.63;;;21.47;;
68216;SDS011;55037;52.354;4.992;2023-02-22T10:30:30;41.45;;;20.95;;
68216;SDS011;55037;52.354;4.992;2023-02-22T10:33:09;41.03;;;21.45;;
68216;SDS011;55037;52.354;4.992;2023-02-22T10:35:41;40.80;;;21.27;;
68216;SDS011;55037;52.354;4.992;2023-02-22T10:38:20;36.63;;;17.83;;
68216;SDS011;55037;52.354;4.992;2023-02-22T10:40:56;39.42;;;19.42;;
68216;SDS011;55037;52.354;4.992;2023-02-22T10:43:38;37.67;;;20.00;;
68216;SDS011;55037;52.354;4.992;2023-02-22T10:46:10;37.13;;;20.10;;
68216;SDS011;55037;52.354;4.992;2023-02-22T10:48:41;34.50;;;19.05;;
68216;SDS011;55037;52.354;4.992;2023-02-22T10:51:10;37.80;;;19.92;;
68216;SDS011;55037;52.354;4.992;2023-02-22T10:53:39;36.65;;;20.13;;
68216;SDS011;55037;52.354;4.992;2023-02-22T11:06:27;32.90;;;18.85;;
68216;SDS011;55037;52.354;4.992;2023-02-22T11:11:44;27.90;;;17.10;;
68216;SDS011;55037;52.354;4.992;2023-02-22T11:14:24;27.03;;;16.13;;
68216;SDS011;55037;52.354;4.992;2023-02-22T11:16:56;28.95;;;15.48;;
68216;SDS011;55037;52.354;4.992;2023-02-22T11:19:26;26.42;;;15.77;;
68216;SDS011;55037;52.354;4.992;2023-02-22T11:21:56;27.80;;;16.45;;
68216;SDS011;55037;52.354;4.992;2023-02-22T11:24:52;26.90;;;16.08;;
68216;SDS011;55037;52.354;4.992;2023-02-22T11:27:24;26.70;;;15.55;;
68216;SDS011;55037;52.354;4.992;2023-02-22T11:32:43;29.40;;;17.23;;
68216;SDS011;55037;52.354;4.992;2023-02-22T11:35:17;27.85;;;16.13;;
68216;SDS011;55037;52.354;4.992;2023-02-22T11:38:07;26.38;;;15.10;;
68216;SDS011;55037;52.354;4.992;2023-02-22T11:40:42;25.05;;;14.40;;
68216;SDS011;55037;52.354;4.992;2023-02-22T11:43:14;25.70;;;14.88;;
68216;SDS011;55037;52.354;4.992;2023-02-22T11:45:54;25.25;;;14.60;;
68216;SDS011;55037;52.354;4.992;2023-02-22T11:48:30;24.98;;;14.30;;
68216;SDS011;55037;52.354;4.992;2023-02-22T11:51:03;27.27;;;15.48;;
68216;SDS011;55037;52.354;4.992;2023-02-22T12:01:54;24.07;;;13.30;;
68216;SDS011;55037;52.354;4.992;2023-02-22T12:10:16;23.98;;;14.50;;
68216;SDS011;55037;52.354;4.992;2023-02-22T12:15:31;26.30;;;15.57;;
68216;SDS011;55037;52.354;4.992;2023-02-22T12:21:11;24.40;;;14.85;;
68216;SDS011;55037;52.354;4.992;2023-02-22T12:23:56;25.92;;;15.57;;
68216;SDS011;55037;52.354;4.992;2023-02-22T12:26:31;24.40;;;14.93;;
68216;SDS011;55037;52.354;4.992;2023-02-22T12:29:11;25.70;;;15.23;;
68216;SDS011;55037;52.354;4.992;2023-02-22T12:31:57;26.93;;;15.70;;
68216;SDS011;55037;52.354;4.992;2023-02-22T12:34:32;26.38;;;14.80;;
68216;SDS011;55037;52.354;4.992;2023-02-22T12:39:48;26.13;;;14.52;;
68216;SDS011;55037;52.354;4.992;2023-02-22T12:45:46;28.20;;;15.95;;
68216;SDS011;55037;52.354;4.992;2023-02-22T12:50:46;26.92;;;15.35;;
68216;SDS011;55037;52.354;4.992;2023-02-22T12:53:19;26.05;;;15.77;;
68216;SDS011;55037;52.354;4.992;2023-02-22T13:01:41;28.92;;;16.00;;
68216;SDS011;55037;52.354;4.992;2023-02-22T13:04:12;28.30;;;16.45;;
68216;SDS011;55037;52.354;4.992;2023-02-22T13:09:59;26.63;;;15.73;;
68216;SDS011;55037;52.354;4.992;2023-02-22T13:12:52;27.50;;;15.60;;
68216;SDS011;55037;52.354;4.992;2023-02-22T13:18:31;28.67;;;17.02;;
68216;SDS011;55037;52.354;4.992;2023-02-22T13:21:15;27.42;;;16.00;;
68216;SDS011;55037;52.354;4.992;2023-02-22T13:26:49;27.08;;;15.82;;
68216;SDS011;55037;52.354;4.992;2023-02-22T13:29:21;27.23;;;16.55;;
68216;SDS011;55037;52.354;4.992;2023-02-22T13:32:09;27.20;;;16.60;;
68216;SDS011;55037;52.354;4.992;2023-02-22T13:43:04;27.63;;;16.10;;
68216;SDS011;55037;52.354;4.992;2023-02-22T13:48:55;29.37;;;17.13;;
68216;SDS011;55037;52.354;4.992;2023-02-22T13:54:16;28.73;;;16.50;;
68216;SDS011;55037;52.354;4.992;2023-02-22T13:56:48;27.05;;;16.70;;
68216;SDS011;55037;52.354;4.992;2023-02-22T13:59:31;28.65;;;16.98;;
68216;SDS011;55037;52.354;4.992;2023-02-22T14:02:02;27.75;;;16.40;;
68216;SDS011;55037;52.354;4.992;2023-02-22T14:04:33;29.85;;;17.00;;
68216;SDS011;55037;52.354;4.992;2023-02-22T14:07:44;29.07;;;16.33;;
68216;SDS011;55037;52.354;4.992;2023-02-22T14:09:55;28.73;;;16.48;;
68216;SDS011;55037;52.354;4.992;2023-02-22T14:17:58;29.08;;;16.92;;
68216;SDS011;55037;52.354;4.992;2023-02-22T14:20:34;26.42;;;16.85;;
68216;SDS011;55037;52.354;4.992;2023-02-22T14:25:49;26.52;;;16.38;;
68216;SDS011;55037;52.354;4.992;2023-02-22T14:31:15;30.02;;;17.17;;
68216;SDS011;55037;52.354;4.992;2023-02-22T14:34:06;27.55;;;15.63;;
68216;SDS011;55037;52.354;4.992;2023-02-22T14:39:30;30.10;;;17.75;;
68216;SDS011;55037;52.354;4.992;2023-02-22T14:44:48;28.83;;;17.50;;
68216;SDS011;55037;52.354;4.992;2023-02-22T14:47:57;30.80;;;16.98;;
68216;SDS011;55037;52.354;4.992;2023-02-22T14:50:24;28.53;;;16.47;;
68216;SDS011;55037;52.354;4.992;2023-02-22T14:53:05;28.98;;;17.20;;
68216;SDS011;55037;52.354;4.992;2023-02-22T14:55:42;26.90;;;16.47;;
68216;SDS011;55037;52.354;4.992;2023-02-22T14:58:20;25.50;;;16.42;;
68216;SDS011;55037;52.354;4.992;2023-02-22T15:00:51;26.90;;;17.15;;
68216;SDS011;55037;52.354;4.992;2023-02-22T15:03:29;29.60;;;17.38;;
68216;SDS011;55037;52.354;4.992;2023-02-22T15:06:03;28.02;;;17.02;;
68216;SDS011;55037;52.354;4.992;2023-02-22T15:08:44;29.80;;;18.13;;
68216;SDS011;55037;52.354;4.992;2023-02-22T15:11:26;28.05;;;17.23;;
68216;SDS011;55037;52.354;4.992;2023-02-22T15:13:58;28.60;;;16.88;;
68216;SDS011;55037;52.354;4.992;2023-02-22T15:16:28;25.60;;;16.07;;
68216;SDS011;55037;52.354;4.992;2023-02-22T15:18:59;26.90;;;16.73;;
68216;SDS011;55037;52.354;4.992;2023-02-22T15:21:33;25.88;;;16.65;;
68216;SDS011;55037;52.354;4.992;2023-02-22T15:24:04;27.42;;;16.40;;
68216;SDS011;55037;52.354;4.992;2023-02-22T15:26:51;26.45;;;16.38;;
68216;SDS011;55037;52.354;4.992;2023-02-22T15:29:31;26.75;;;17.05;;
68216;SDS011;55037;52.354;4.992;2023-02-22T15:40:41;27.25;;;17.55;;
68216;SDS011;55037;52.354;4.992;2023-02-22T15:43:16;28.27;;;17.02;;
68216;SDS011;55037;52.354;4.992;2023-02-22T15:45:50;27.40;;;17.33;;
68216;SDS011;55037;52.354;4.992;2023-02-22T15:48:17;27.52;;;16.08;;
68216;SDS011;55037;52.354;4.992;2023-02-22T15:53:43;26.58;;;15.70;;
68216;SDS011;55037;52.354;4.992;2023-02-22T15:56:16;30.15;;;17.98;;
68216;SDS011;55037;52.354;4.992;2023-02-22T15:58:49;24.33;;;14.65;;
68216;SDS011;55037;52.354;4.992;2023-02-22T16:01:24;26.45;;;16.63;;
68216;SDS011;55037;52.354;4.992;2023-02-22T16:03:53;28.40;;;17.17;;
68216;SDS011;55037;52.354;4.992;2023-02-22T16:11:35;28.65;;;18.83;;
68216;SDS011;55037;52.354;4.992;2023-02-22T16:14:22;31.10;;;17.98;;
68216;SDS011;55037;52.354;4.992;2023-02-22T16:20:41;31.52;;;18.60;;
68216;SDS011;55037;52.354;4.992;2023-02-22T16:22:45;30.67;;;19.23;;
68216;SDS011;55037;52.354;4.992;2023-02-22T16:27:47;32.10;;;19.77;;
68216;SDS011;55037;52.354;4.992;2023-02-22T16:32:54;28.27;;;18.60;;
68216;SDS011;55037;52.354;4.992;2023-02-22T16:35:26;28.38;;;18.17;;
68216;SDS011;55037;52.354;4.992;2023-02-22T16:38:02;28.33;;;18.07;;
68216;SDS011;55037;52.354;4.992;2023-02-22T16:40:34;32.53;;;19.55;;
68216;SDS011;55037;52.354;4.992;2023-02-22T16:43:06;31.40;;;19.50;;
68216;SDS011;55037;52.354;4.992;2023-02-22T16:45:37;32.13;;;19.55;;
68216;SDS011;55037;52.354;4.992;2023-02-22T16:48:13;34.58;;;21.10;;
68216;SDS011;55037;52.354;4.992;2023-02-22T16:50:46;32.60;;;20.35;;
68216;SDS011;55037;52.354;4.992;2023-02-22T16:53:17;35.22;;;20.02;;
68216;SDS011;55037;52.354;4.992;2023-02-22T16:55:47;32.72;;;20.08;;
68216;SDS011;55037;52.354;4.992;2023-02-22T16:58:17;30.63;;;20.05;;
68216;SDS011;55037;52.354;4.992;2023-02-22T17:00:45;34.05;;;20.63;;
68216;SDS011;55037;52.354;4.992;2023-02-22T17:03:16;32.00;;;20.00;;
68216;SDS011;55037;52.354;4.992;2023-02-22T17:05:44;35.47;;;21.30;;
68216;SDS011;55037;52.354;4.992;2023-02-22T17:08:11;32.97;;;20.73;;
68216;SDS011;55037;52.354;4.992;2023-02-22T17:10:38;33.80;;;20.97;;
68216;SDS011;55037;52.354;4.992;2023-02-22T17:13:06;34.00;;;20.40;;
68216;SDS011;55037;52.354;4.992;2023-02-22T17:15:49;36.92;;;22.17;;
68216;SDS011;55037;52.354;4.992;2023-02-22T17:18:18;35.22;;;22.02;;
68216;SDS011;55037;52.354;4.992;2023-02-22T17:20:52;33.97;;;21.35;;
68216;SDS011;55037;52.354;4.992;2023-02-22T17:23:23;37.20;;;22.08;;
68216;SDS011;55037;52.354;4.992;2023-02-22T17:25:54;37.10;;;21.60;;
68216;SDS011;55037;52.354;4.992;2023-02-22T17:28:24;40.20;;;23.02;;
68216;SDS011;55037;52.354;4.992;2023-02-22T17:30:53;41.78;;;25.60;;